Time;durP1;ratioP1;P1;durP2;ratioP2;P2;SDS_P1;SDS_P2;PMS_P1;PMS_P2;Temp;Humidity;BMP_temperature;BMP_pressure;BME280_temperature;BME280_humidity;BME280_pressure;Samples;Min_cycle;Max_cycle;Signal;HPM_P1;HPM_P2
2022/03/28 00:00:08;;;;;;;19.37;13.77;;;5.60;99.90;;;;;;5095554;28;20200;-75
2022/03/28 00:02:35;;;;;;;20.33;14.60;;;5.60;99.90;;;;;;5095537;28;20201;-75
2022/03/28 00:05:02;;;;;;;20.07;14.20;;;5.80;99.90;;;;;;5094314;28;20649;-75
2022/03/28 00:07:30;;;;;;;20.87;13.83;;;6.00;99.90;;;;;;5093445;28;20287;-75
2022/03/28 00:09:56;;;;;;;17.73;12.53;;;6.10;99.90;;;;;;5093351;28;20211;-75
2022/03/28 00:12:23;;;;;;;17.67;12.57;;;6.10;99.90;;;;;;5093082;28;20197;-75
2022/03/28 00:14:49;;;;;;;17.17;12.50;;;5.90;99.90;;;;;;5092960;28;20642;-75
2022/03/28 00:17:16;;;;;;;16.43;12.80;;;6.00;99.90;;;;;;5093241;28;20196;-75
2022/03/28 00:19:43;;;;;;;17.67;12.23;;;6.00;99.90;;;;;;5092983;28;20253;-75
2022/03/28 00:22:10;;;;;;;16.93;12.40;;;6.10;99.90;;;;;;5092958;28;20317;-75
2022/03/28 00:24:38;;;;;;;15.73;12.70;;;6.00;99.90;;;;;;5093119;28;20204;-75
2022/03/28 00:27:05;;;;;;;16.47;11.97;;;5.80;99.90;;;;;;5095347;28;20200;-75
2022/03/28 00:29:31;;;;;;;16.67;11.73;;;5.70;99.90;;;;;;5097201;28;20192;-75
2022/03/28 00:31:58;;;;;;;16.87;11.77;;;5.80;99.90;;;;;;5097176;28;20200;-75
2022/03/28 00:34:25;;;;;;;16.17;11.33;;;5.80;99.90;;;;;;5097109;28;20248;-76
2022/03/28 00:36:51;;;;;;;15.87;12.07;;;5.70;99.90;;;;;;5097188;28;20196;-75
2022/03/28 00:39:19;;;;;;;16.07;12.13;;;5.50;99.90;;;;;;5097021;28;20277;-75
2022/03/28 00:41:48;;;;;;;16.90;12.20;;;5.30;99.90;;;;;;5096915;28;20242;-75
2022/03/28 00:44:14;;;;;;;16.53;12.90;;;5.40;99.90;;;;;;5096998;28;20196;-75
2022/03/28 00:46:41;;;;;;;18.90;12.40;;;5.20;99.90;;;;;;5096804;28;20199;-75
2022/03/28 00:49:08;;;;;;;18.63;12.67;;;5.20;99.90;;;;;;5097163;28;20200;-75
2022/03/28 00:51:35;;;;;;;16.87;12.80;;;5.30;99.90;;;;;;5097036;28;20196;-75
2022/03/28 00:54:02;;;;;;;15.17;12.27;;;5.40;99.90;;;;;;5097262;28;20241;-75
2022/03/28 00:56:28;;;;;;;18.43;11.80;;;5.50;99.90;;;;;;5097115;28;20253;-75
2022/03/28 00:58:58;;;;;;;19.10;14.33;;;5.40;99.90;;;;;;5097187;28;20220;-76
2022/03/28 01:01:25;;;;;;;15.13;12.70;;;5.20;99.90;;;;;;5097317;28;20682;-75
2022/03/28 01:03:52;;;;;;;18.03;13.30;;;5.00;99.90;;;;;;5097896;28;20227;-75
2022/03/28 01:06:19;;;;;;;16.97;12.83;;;4.90;99.90;;;;;;5100188;28;20253;-76
2022/03/28 01:08:45;;;;;;;18.23;13.27;;;5.10;99.90;;;;;;5103929;28;20227;-76
2022/03/28 01:11:12;;;;;;;17.67;13.30;;;5.20;99.90;;;;;;5104380;28;20196;-76
2022/03/28 01:13:41;;;;;;;20.80;14.07;;;5.20;99.90;;;;;;5100717;28;20681;-75
2022/03/28 01:16:10;;;;;;;16.73;13.57;;;5.20;99.90;;;;;;5098742;28;20203;-75
2022/03/28 01:18:36;;;;;;;16.07;12.90;;;5.30;99.90;;;;;;5097284;28;20722;-75
2022/03/28 01:21:05;;;;;;;19.07;13.33;;;5.10;99.90;;;;;;5097476;28;20207;-75
2022/03/28 01:23:31;;;;;;;16.37;12.23;;;5.10;99.90;;;;;;5097715;28;20200;-75
2022/03/28 01:25:58;;;;;;;15.77;12.33;;;5.10;99.90;;;;;;5098001;28;20199;-75
2022/03/28 01:28:27;;;;;;;18.73;13.40;;;5.20;99.90;;;;;;5097513;28;20211;-75
2022/03/28 01:30:54;;;;;;;16.03;12.93;;;5.20;99.90;;;;;;5097290;28;20644;-74
2022/03/28 01:33:21;;;;;;;18.03;13.23;;;5.20;99.90;;;;;;5097749;28;20235;-75
2022/03/28 01:35:48;;;;;;;15.80;12.57;;;5.20;99.90;;;;;;5096970;28;20200;-75
2022/03/28 01:38:19;;;;;;;17.37;12.87;;;5.20;99.90;;;;;;5096221;28;20246;-75
2022/03/28 01:40:47;;;;;;;18.83;12.67;;;5.00;99.90;;;;;;5100325;28;20209;-75
2022/03/28 01:43:14;;;;;;;14.67;11.77;;;4.80;99.90;;;;;;5102898;28;20606;-75
2022/03/28 01:45:41;;;;;;;16.97;12.37;;;4.70;99.90;;;;;;5100665;28;20195;-76
2022/03/28 01:48:08;;;;;;;13.93;11.60;;;4.50;99.90;;;;;;5101970;28;20208;-75
2022/03/28 01:50:35;;;;;;;15.93;12.83;;;4.40;99.90;;;;;;5102127;28;20604;-75
2022/03/28 01:53:03;;;;;;;16.37;13.10;;;4.50;99.90;;;;;;5103382;28;20202;-76
2022/03/28 01:55:31;;;;;;;16.77;12.80;;;4.60;99.90;;;;;;5103226;28;20244;-75
2022/03/28 01:57:58;;;;;;;17.30;13.10;;;4.50;99.90;;;;;;5101643;28;20242;-75
2022/03/28 02:00:28;;;;;;;17.77;12.17;;;4.30;99.90;;;;;;5098942;28;20238;-75
2022/03/28 02:02:56;;;;;;;17.70;13.37;;;4.20;99.90;;;;;;5097035;28;20199;-75
2022/03/28 02:05:23;;;;;;;15.73;12.30;;;4.30;99.90;;;;;;5096673;28;20201;-75
2022/03/28 02:07:50;;;;;;;20.60;13.67;;;4.40;99.90;;;;;;5095809;28;20796;-74
2022/03/28 02:10:19;;;;;;;20.90;14.00;;;4.50;99.90;;;;;;5096150;28;20662;-75
2022/03/28 02:12:47;;;;;;;19.93;13.80;;;4.40;99.90;;;;;;5095918;28;20200;-75
2022/03/28 02:15:15;;;;;;;17.23;13.00;;;4.40;99.90;;;;;;5095883;28;20600;-75
2022/03/28 02:17:42;;;;;;;17.43;12.90;;;4.30;99.90;;;;;;5095814;28;20244;-75
2022/03/28 02:20:11;;;;;;;19.47;13.33;;;4.20;99.90;;;;;;5095555;28;20199;-75
2022/03/28 02:22:40;;;;;;;17.03;12.93;;;4.00;99.90;;;;;;5095436;28;20236;-74
2022/03/28 02:25:10;;;;;;;16.77;13.30;;;3.90;99.90;;;;;;5095841;28;20198;-74
2022/03/28 02:27:37;;;;;;;17.30;13.20;;;3.80;99.90;;;;;;5095403;28;20195;-75
2022/03/28 02:30:07;;;;;;;16.77;13.63;;;3.80;99.90;;;;;;5095562;28;20351;-75
2022/03/28 02:32:34;;;;;;;18.10;14.27;;;4.10;99.90;;;;;;5095909;28;20261;-75
2022/03/28 02:35:00;;;;;;;18.93;13.77;;;4.10;99.90;;;;;;5095635;28;20205;-75
2022/03/28 02:37:27;;;;;;;18.33;13.57;;;4.20;99.90;;;;;;5095566;28;20663;-75
2022/03/28 02:39:54;;;;;;;17.63;13.27;;;4.00;99.90;;;;;;5095732;28;20225;-75
2022/03/28 02:42:22;;;;;;;20.37;13.53;;;3.90;99.90;;;;;;5095554;28;20200;-74
2022/03/28 02:44:49;;;;;;;21.10;14.63;;;4.00;99.90;;;;;;5096059;28;20249;-75
2022/03/28 02:47:18;;;;;;;20.90;14.23;;;4.10;99.90;;;;;;5094803;28;20285;-75
2022/03/28 02:49:44;;;;;;;22.00;13.70;;;4.10;99.90;;;;;;5094203;28;20641;-75
2022/03/28 02:52:11;;;;;;;22.20;13.97;;;3.90;99.90;;;;;;5094933;28;20196;-75
2022/03/28 02:54:38;;;;;;;21.13;13.63;;;4.10;99.90;;;;;;5095015;28;20598;-75
2022/03/28 02:57:05;;;;;;;18.37;13.17;;;4.10;99.90;;;;;;5094859;28;20260;-75
2022/03/28 02:59:31;;;;;;;18.63;13.73;;;4.20;99.90;;;;;;5094934;28;20630;-75
2022/03/28 03:01:58;;;;;;;19.90;13.57;;;4.10;99.90;;;;;;5094939;28;20196;-75
2022/03/28 03:04:26;;;;;;;19.40;13.83;;;4.10;99.90;;;;;;5095783;28;20193;-75
2022/03/28 03:06:53;;;;;;;19.83;13.17;;;4.00;99.90;;;;;;5095331;28;20264;-75
2022/03/28 03:09:20;;;;;;;20.97;12.57;;;3.80;99.90;;;;;;5095627;28;20582;-75
2022/03/28 03:11:46;;;;;;;18.13;13.77;;;3.80;99.90;;;;;;5095419;28;20196;-75
2022/03/28 03:14:13;;;;;;;20.60;14.37;;;3.90;99.90;;;;;;5097824;28;20196;-75
2022/03/28 03:16:40;;;;;;;22.13;12.97;;;3.90;99.90;;;;;;5100784;28;20273;-75
2022/03/28 03:19:07;;;;;;;17.17;13.00;;;3.90;99.90;;;;;;5104731;28;20224;-76
2022/03/28 03:21:35;;;;;;;16.90;13.40;;;3.70;99.90;;;;;;5103647;28;20224;-75
2022/03/28 03:24:01;;;;;;;20.07;13.37;;;3.70;99.90;;;;;;5102757;28;20195;-75
2022/03/28 03:26:28;;;;;;;19.13;14.03;;;3.80;99.90;;;;;;5102340;28;20194;-76
2022/03/28 03:28:55;;;;;;;18.43;13.10;;;3.90;99.90;;;;;;5097700;28;20244;-76
2022/03/28 03:31:22;;;;;;;19.50;14.20;;;4.00;99.90;;;;;;5103720;28;20193;-76
2022/03/28 03:33:49;;;;;;;18.40;12.80;;;3.90;99.90;;;;;;5101485;28;20194;-75
2022/03/28 03:36:15;;;;;;;23.07;13.00;;;3.90;99.90;;;;;;5094613;28;20220;-75
2022/03/28 03:38:43;;;;;;;19.80;13.80;;;3.80;99.90;;;;;;5094286;28;20263;-75
2022/03/28 03:41:10;;;;;;;15.07;12.37;;;3.60;99.90;;;;;;5094383;28;20602;-75
2022/03/28 03:43:37;;;;;;;16.87;12.60;;;3.50;99.90;;;;;;5094080;28;20204;-75
2022/03/28 03:46:03;;;;;;;19.30;13.13;;;3.30;99.90;;;;;;5093874;28;20611;-75
2022/03/28 03:48:30;;;;;;;19.20;13.20;;;3.20;99.90;;;;;;5094214;28;20196;-75
2022/03/28 03:50:57;;;;;;;19.10;13.27;;;3.20;99.90;;;;;;5094132;28;20198;-75
2022/03/28 03:53:23;;;;;;;22.43;15.40;;;3.10;99.90;;;;;;5093837;28;20192;-75
2022/03/28 03:55:51;;;;;;;17.57;13.77;;;3.00;99.90;;;;;;5093881;28;20199;-75
2022/03/28 03:58:18;;;;;;;22.90;14.40;;;3.30;99.90;;;;;;5093957;28;20200;-75
2022/03/28 04:00:44;;;;;;;19.03;13.87;;;3.50;99.90;;;;;;5094018;28;20197;-75
2022/03/28 04:03:11;;;;;;;21.90;14.97;;;3.20;99.90;;;;;;5094503;28;20201;-75
2022/03/28 04:05:38;;;;;;;24.90;15.27;;;3.10;99.90;;;;;;5094004;28;20253;-75
2022/03/28 04:08:06;;;;;;;21.40;15.07;;;3.00;99.90;;;;;;5093739;28;20198;-75
2022/03/28 04:10:34;;;;;;;23.83;15.03;;;3.00;99.90;;;;;;5093605;28;20220;-75
2022/03/28 04:13:02;;;;;;;20.37;14.60;;;2.90;99.90;;;;;;5093658;28;20662;-75
2022/03/28 04:15:29;;;;;;;19.37;14.17;;;2.90;99.90;;;;;;5093599;28;20200;-75
2022/03/28 04:17:55;;;;;;;20.73;15.63;;;2.90;99.90;;;;;;5094063;28;20197;-76
2022/03/28 04:20:22;;;;;;;21.37;14.63;;;3.10;99.90;;;;;;5093840;28;20224;-75
2022/03/28 04:22:51;;;;;;;22.80;15.10;;;3.00;99.90;;;;;;5093760;28;20232;-75
2022/03/28 04:25:18;;;;;;;19.83;14.67;;;2.90;99.90;;;;;;5093807;28;20192;-74
2022/03/28 04:27:44;;;;;;;20.93;14.03;;;2.80;99.90;;;;;;5093304;28;20225;-75
2022/03/28 04:30:13;;;;;;;20.63;14.43;;;2.70;99.90;;;;;;5093705;28;20258;-74
2022/03/28 04:32:40;;;;;;;23.77;14.73;;;2.60;99.90;;;;;;5093526;28;20201;-74
2022/03/28 04:35:08;;;;;;;22.70;14.13;;;2.40;99.90;;;;;;5093442;28;20193;-75
2022/03/28 04:37:37;;;;;;;22.03;14.60;;;2.40;99.90;;;;;;5093473;28;20197;-75
2022/03/28 04:40:05;;;;;;;21.63;14.17;;;2.50;99.90;;;;;;5093351;28;20254;-75
2022/03/28 04:42:32;;;;;;;18.90;14.70;;;2.60;99.90;;;;;;5093800;28;20202;-75
2022/03/28 04:44:59;;;;;;;22.27;15.40;;;2.70;99.90;;;;;;5094120;28;20200;-75
2022/03/28 04:47:27;;;;;;;21.93;15.90;;;2.40;99.90;;;;;;5093114;28;20651;-75
2022/03/28 04:49:53;;;;;;;24.50;15.47;;;2.30;99.90;;;;;;5093369;28;20233;-76
2022/03/28 04:52:20;;;;;;;22.23;15.20;;;2.50;99.90;;;;;;5093323;28;20555;-75
2022/03/28 04:54:47;;;;;;;20.87;14.50;;;2.70;99.90;;;;;;5093166;28;20193;-75
2022/03/28 04:57:13;;;;;;;21.67;14.13;;;2.70;99.90;;;;;;5093176;28;20205;-75
2022/03/28 04:59:40;;;;;;;21.27;15.20;;;2.80;99.90;;;;;;5093405;28;20317;-75
2022/03/28 05:02:07;;;;;;;24.57;16.43;;;2.80;99.90;;;;;;5093430;28;20262;-76
2022/03/28 05:04:35;;;;;;;22.47;15.73;;;2.80;99.90;;;;;;5093287;28;20196;-75
2022/03/28 05:07:01;;;;;;;23.87;16.03;;;2.60;99.90;;;;;;5093100;28;20255;-75
2022/03/28 05:09:28;;;;;;;20.53;14.83;;;2.50;99.90;;;;;;5092807;28;20201;-75
2022/03/28 05:11:55;;;;;;;21.53;14.87;;;2.40;99.90;;;;;;5093561;28;20219;-75
2022/03/28 05:14:22;;;;;;;25.13;16.30;;;2.30;99.90;;;;;;5097206;28;20341;-76
2022/03/28 05:16:49;;;;;;;21.40;16.03;;;2.30;99.90;;;;;;5097777;28;20393;-75
2022/03/28 05:19:16;;;;;;;23.57;15.77;;;2.40;99.90;;;;;;5097084;28;20220;-75
2022/03/28 05:21:44;;;;;;;27.23;16.60;;;2.40;99.90;;;;;;5096686;28;20240;-74
2022/03/28 05:24:10;;;;;;;24.90;16.00;;;2.70;99.90;;;;;;5096802;28;20215;-75
2022/03/28 05:26:37;;;;;;;23.60;15.70;;;2.90;99.90;;;;;;5096609;28;20197;-75
2022/03/28 05:29:04;;;;;;;23.93;17.93;;;2.90;99.90;;;;;;5096902;28;20200;-75
2022/03/28 05:31:30;;;;;;;24.17;16.30;;;2.90;99.90;;;;;;5096962;28;20226;-75
2022/03/28 05:33:57;;;;;;;30.07;19.27;;;2.90;99.90;;;;;;5096844;28;20645;-75
2022/03/28 05:36:24;;;;;;;42.63;22.87;;;3.00;99.90;;;;;;5096689;28;20201;-75
2022/03/28 05:38:52;;;;;;;39.57;23.47;;;3.10;99.90;;;;;;5097047;28;20230;-75
2022/03/28 05:41:19;;;;;;;53.40;27.83;;;3.20;99.90;;;;;;5097036;28;20196;-75
2022/03/28 05:43:45;;;;;;;51.00;26.70;;;3.30;99.90;;;;;;5097096;28;20241;-76
2022/03/28 05:46:12;;;;;;;42.17;25.07;;;3.40;99.90;;;;;;5097555;28;20203;-75
2022/03/28 05:48:39;;;;;;;44.77;23.10;;;3.50;99.90;;;;;;5097394;28;20196;-76
2022/03/28 05:51:05;;;;;;;36.37;21.37;;;3.70;99.90;;;;;;5097068;28;20252;-76
2022/03/28 05:53:32;;;;;;;34.57;20.77;;;3.70;99.90;;;;;;5097590;28;20199;-75
2022/03/28 05:56:03;;;;;;;31.80;19.93;;;3.80;99.90;;;;;;5097194;28;20204;-75
2022/03/28 05:58:32;;;;;;;33.10;20.30;;;3.70;99.90;;;;;;5097559;28;20677;-75
2022/03/28 06:01:00;;;;;;;36.30;20.90;;;3.90;99.90;;;;;;5096727;28;20318;-75
2022/03/28 06:03:26;;;;;;;33.33;20.90;;;4.00;99.90;;;;;;5097175;28;20559;-75
2022/03/28 06:05:53;;;;;;;35.03;19.40;;;4.10;99.90;;;;;;5096618;28;20202;-75
2022/03/28 06:08:20;;;;;;;28.47;19.00;;;4.10;99.90;;;;;;5097025;28;20200;-75
2022/03/28 06:10:47;;;;;;;34.10;18.77;;;4.30;99.90;;;;;;5097356;28;20203;-78
2022/03/28 06:13:16;;;;;;;26.37;18.73;;;4.30;99.90;;;;;;5098467;28;20200;-76
2022/03/28 06:15:43;;;;;;;30.43;18.40;;;4.40;99.90;;;;;;5098082;28;20233;-75
2022/03/28 06:18:10;;;;;;;30.30;18.10;;;4.40;99.90;;;;;;5098288;28;20654;-76
2022/03/28 06:20:37;;;;;;;26.30;17.47;;;4.50;99.90;;;;;;5097545;28;20759;-74
2022/03/28 06:23:03;;;;;;;32.43;18.87;;;4.70;99.90;;;;;;5098065;28;20228;-76
2022/03/28 06:25:30;;;;;;;25.83;17.93;;;4.80;99.90;;;;;;5099918;28;20249;-76
2022/03/28 06:27:57;;;;;;;29.57;18.17;;;4.80;99.90;;;;;;5103660;28;20248;-76
2022/03/28 06:30:25;;;;;;;33.53;17.53;;;5.00;99.90;;;;;;5102835;28;20196;-76
2022/03/28 06:32:52;;;;;;;33.17;19.43;;;5.10;99.90;;;;;;5103077;28;20197;-76
2022/03/28 06:35:18;;;;;;;30.77;19.60;;;5.20;99.90;;;;;;5100405;28;20200;-77
2022/03/28 06:37:45;;;;;;;31.10;18.87;;;5.30;99.90;;;;;;5100672;28;20222;-76
2022/03/28 06:40:13;;;;;;;35.23;18.53;;;5.40;99.90;;;;;;5096868;28;20224;-76
2022/03/28 06:42:40;;;;;;;30.60;18.87;;;5.60;99.90;;;;;;5095063;28;20203;-76
2022/03/28 06:45:09;;;;;;;29.10;18.90;;;5.70;99.90;;;;;;5097421;28;20200;-77
2022/03/28 06:47:37;;;;;;;34.23;20.83;;;5.80;99.90;;;;;;5097148;28;20204;-76
2022/03/28 06:50:05;;;;;;;33.80;20.13;;;6.00;99.90;;;;;;5097266;28;20201;-79
2022/03/28 06:52:32;;;;;;;28.93;19.43;;;6.10;99.90;;;;;;5091931;28;20201;-79
2022/03/28 06:54:59;;;;;;;32.73;20.03;;;6.20;99.90;;;;;;5092036;28;20279;-77
2022/03/28 06:57:26;;;;;;;31.47;19.13;;;6.40;99.90;;;;;;5093670;28;20196;-76
2022/03/28 06:59:52;;;;;;;30.90;20.63;;;6.50;99.90;;;;;;5093671;28;20890;-75
2022/03/28 07:02:19;;;;;;;25.77;18.43;;;6.70;99.90;;;;;;5094032;28;20201;-76
2022/03/28 07:04:47;;;;;;;30.40;19.73;;;6.80;99.90;;;;;;5093640;28;20201;-78
2022/03/28 07:07:14;;;;;;;30.47;18.63;;;7.00;99.90;;;;;;5092069;28;20188;-77
2022/03/28 07:09:41;;;;;;;25.70;17.70;;;7.10;99.90;;;;;;5090414;28;20197;-77
2022/03/28 07:12:09;;;;;;;25.27;18.57;;;7.30;99.90;;;;;;5093309;28;20253;-77
2022/03/28 07:14:36;;;;;;;30.07;18.07;;;7.50;99.90;;;;;;5093517;28;20236;-77
2022/03/28 07:17:02;;;;;;;26.50;18.27;;;7.60;99.90;;;;;;5093791;28;20650;-77
2022/03/28 07:19:29;;;;;;;24.47;18.73;;;7.80;99.90;;;;;;5093038;28;20254;-77
2022/03/28 07:21:57;;;;;;;32.13;18.90;;;7.90;99.90;;;;;;5093391;28;20586;-77
2022/03/28 07:24:24;;;;;;;27.20;19.00;;;8.10;99.90;;;;;;5093436;28;20200;-76
2022/03/28 07:26:53;;;;;;;28.77;19.73;;;8.30;99.90;;;;;;5093250;28;20208;-77
2022/03/28 07:29:20;;;;;;;26.40;18.07;;;8.50;99.90;;;;;;5093160;28;20211;-75
2022/03/28 07:31:47;;;;;;;26.73;18.67;;;8.60;99.90;;;;;;5093454;28;20196;-76
2022/03/28 07:34:32;;;;;;;27.90;19.63;;;8.80;99.90;;;;;;5093401;28;20246;-75
2022/03/28 07:37:03;;;;;;;24.87;18.90;;;9.10;99.90;;;;;;5093011;28;20204;-75
2022/03/28 07:39:33;;;;;;;29.90;18.23;;;9.30;99.90;;;;;;5092571;28;20277;-75
2022/03/28 07:41:59;;;;;;;27.07;17.37;;;9.50;99.90;;;;;;5093225;28;20228;-75
2022/03/28 07:44:26;;;;;;;29.00;18.67;;;9.80;99.90;;;;;;5093205;28;20196;-76
2022/03/28 07:46:53;;;;;;;24.50;17.93;;;10.00;99.90;;;;;;5093183;28;20569;-76
2022/03/28 07:49:19;;;;;;;26.90;18.67;;;10.20;99.90;;;;;;5092806;28;20196;-76
2022/03/28 07:51:46;;;;;;;27.33;17.97;;;10.40;99.90;;;;;;5092677;28;20233;-75
2022/03/28 07:54:14;;;;;;;22.73;17.00;;;10.50;99.90;;;;;;5092898;28;20651;-74
2022/03/28 07:56:41;;;;;;;23.40;16.40;;;10.80;99.90;;;;;;5093119;28;20211;-75
2022/03/28 07:59:08;;;;;;;27.83;17.20;;;11.00;99.90;;;;;;5092719;28;20200;-76
2022/03/28 08:01:34;;;;;;;25.43;18.77;;;11.30;99.90;;;;;;5092652;28;20686;-75
2022/03/28 08:04:01;;;;;;;27.13;18.53;;;11.50;99.90;;;;;;5092739;28;20207;-74
2022/03/28 08:06:28;;;;;;;23.83;16.63;;;11.70;99.90;;;;;;5092585;28;20196;-76
2022/03/28 08:08:55;;;;;;;22.40;16.63;;;12.00;99.90;;;;;;5092644;28;20196;-75
2022/03/28 08:11:23;;;;;;;20.90;16.80;;;12.30;99.90;;;;;;5092987;28;20207;-77
2022/03/28 08:13:50;;;;;;;23.33;16.77;;;12.50;99.90;;;;;;5092635;28;20201;-76
2022/03/28 08:16:16;;;;;;;21.90;16.43;;;12.70;99.90;;;;;;5092652;28;20200;-76
2022/03/28 08:18:43;;;;;;;29.03;16.80;;;13.00;99.90;;;;;;5092070;28;20647;-77
2022/03/28 08:21:10;;;;;;;24.80;16.80;;;13.20;99.90;;;;;;5092615;28;20296;-76
2022/03/28 08:23:37;;;;;;;23.43;16.23;;;13.50;99.90;;;;;;5092094;28;20277;-76
2022/03/28 08:26:04;;;;;;;22.20;17.23;;;13.70;99.90;;;;;;5092842;28;20249;-77
2022/03/28 08:28:32;;;;;;;23.63;15.77;;;14.00;99.90;;;;;;5092360;28;20224;-77
2022/03/28 08:30:59;;;;;;;29.93;17.60;;;14.20;99.90;;;;;;5092591;28;20203;-77
2022/03/28 08:33:25;;;;;;;25.33;17.60;;;14.40;99.90;;;;;;5092466;28;20814;-76
2022/03/28 08:35:52;;;;;;;23.57;16.77;;;14.70;99.90;;;;;;5092743;28;20651;-76
2022/03/28 08:38:19;;;;;;;20.00;15.00;;;15.00;95.60;;;;;;5092188;28;20575;-77
2022/03/28 08:40:45;;;;;;;25.00;14.77;;;15.30;72.90;;;;;;5092300;28;20694;-75
2022/03/28 08:43:16;;;;;;;17.40;13.83;;;15.60;57.90;;;;;;5092463;28;20196;-77
2022/03/28 08:45:45;;;;;;;21.63;14.40;;;15.90;54.40;;;;;;5092836;28;20205;-77
2022/03/28 08:48:13;;;;;;;18.57;13.90;;;16.10;50.70;;;;;;5094993;28;20258;-75
2022/03/28 08:50:42;;;;;;;19.33;13.73;;;16.30;50.20;;;;;;5096170;28;20204;-77
2022/03/28 08:53:09;;;;;;;19.42;14.25;;;16.30;45.80;;;;;;5096561;28;20196;-76
2022/03/28 08:55:38;;;;;;;21.58;14.23;;;16.30;42.90;;;;;;5096254;28;20193;-79
2022/03/28 08:58:05;;;;;;;22.33;14.90;;;16.20;43.50;;;;;;5089770;28;20226;-76
2022/03/28 09:00:32;;;;;;;24.42;15.07;;;16.80;42.00;;;;;;5092292;28;20224;-77
2022/03/28 09:03:00;;;;;;;18.83;14.30;;;16.80;41.10;;;;;;5094668;28;20193;-75
2022/03/28 09:05:32;;;;;;;20.42;13.75;;;17.00;41.40;;;;;;5095664;28;20196;-75
2022/03/28 09:07:59;;;;;;;22.33;14.95;;;17.40;40.90;;;;;;5095914;28;20201;-75
2022/03/28 09:10:28;;;;;;;17.65;14.55;;;17.40;37.50;;;;;;5095463;28;20207;-76
2022/03/28 09:13:02;;;;;;;19.88;14.35;;;17.70;37.20;;;;;;5092613;28;20196;-78
2022/03/28 09:15:47;;;;;;;21.83;14.68;;;17.50;34.20;;;;;;5093885;28;20226;-76
2022/03/28 09:18:27;;;;;;;18.15;14.77;;;17.40;36.00;;;;;;5095521;28;20200;-77
2022/03/28 09:20:56;;;;;;;20.55;14.63;;;17.80;36.40;;;;;;5093252;28;20251;-76
2022/03/28 09:23:42;;;;;;;17.38;12.65;;;17.90;33.60;;;;;;5093981;28;20232;-75
2022/03/28 09:26:12;;;;;;;22.30;14.75;;;17.80;31.60;;;;;;5095466;28;20196;-76
2022/03/28 09:28:46;;;;;;;19.58;13.55;;;17.60;31.50;;;;;;5095868;28;20238;-77
2022/03/28 09:31:21;;;;;;;20.92;13.55;;;18.00;30.90;;;;;;5095832;28;20205;-77
2022/03/28 09:34:00;;;;;;;20.35;13.93;;;18.00;30.50;;;;;;5094936;28;20249;-77
2022/03/28 09:36:45;;;;;;;18.27;13.60;;;18.00;30.80;;;;;;5095792;28;20570;-77
2022/03/28 09:39:16;;;;;;;19.50;14.18;;;17.80;29.70;;;;;;5095523;28;20580;-78
2022/03/28 09:41:44;;;;;;;19.30;13.70;;;18.40;29.40;;;;;;5095629;28;20604;-78
2022/03/28 09:44:10;;;;;;;17.50;13.02;;;18.60;28.20;;;;;;5095244;28;20205;-79
2022/03/28 09:46:37;;;;;;;17.10;13.55;;;18.50;24.60;;;;;;5095518;28;20204;-78
2022/03/28 09:49:08;;;;;;;17.10;12.88;;;18.80;25.10;;;;;;5095661;28;20206;-77
2022/03/28 09:51:36;;;;;;;20.08;13.50;;;19.20;23.70;;;;;;5095214;28;20581;-76
2022/03/28 09:54:03;;;;;;;19.35;14.98;;;19.70;22.90;;;;;;5094927;28;20563;-76
2022/03/28 09:56:30;;;;;;;22.38;14.02;;;19.90;21.80;;;;;;5094752;28;20200;-76
2022/03/28 09:58:59;;;;;;;21.52;14.57;;;20.10;20.20;;;;;;5094803;28;20200;-77
2022/03/28 10:01:30;;;;;;;18.02;13.38;;;20.50;19.30;;;;;;5095049;28;20250;-76
2022/03/28 10:04:00;;;;;;;19.85;13.75;;;19.90;20.70;;;;;;5094536;28;20670;-77
2022/03/28 10:06:29;;;;;;;17.90;14.32;;;20.10;20.60;;;;;;5094565;28;20203;-77
2022/03/28 10:08:57;;;;;;;19.13;14.23;;;20.40;20.80;;;;;;5094698;28;20287;-77
2022/03/28 10:11:25;;;;;;;19.25;14.70;;;20.10;20.60;;;;;;5094847;28;20202;-77
2022/03/28 10:13:52;;;;;;;18.65;14.20;;;20.40;19.90;;;;;;5094760;28;20196;-77
2022/03/28 10:16:19;;;;;;;17.10;13.40;;;20.50;19.90;;;;;;5094632;28;20192;-78
2022/03/28 10:18:47;;;;;;;16.50;14.38;;;20.60;19.80;;;;;;5094745;28;20246;-77
2022/03/28 10:21:16;;;;;;;16.70;14.60;;;21.20;19.40;;;;;;5094518;28;20212;-76
2022/03/28 10:23:50;;;;;;;17.13;14.82;;;21.80;18.80;;;;;;5094513;28;20236;-77
2022/03/28 10:26:18;;;;;;;16.65;14.45;;;21.90;18.10;;;;;;5094648;28;20191;-77
2022/03/28 10:29:00;;;;;;;20.17;14.57;;;21.00;17.90;;;;;;5094908;28;20218;-77
2022/03/28 10:31:30;;;;;;;19.60;15.35;;;20.90;18.70;;;;;;5094675;28;20605;-77
2022/03/28 10:33:56;;;;;;;16.60;14.60;;;21.30;18.40;;;;;;5094402;28;20199;-77
2022/03/28 10:36:27;;;;;;;22.20;15.10;;;22.10;16.70;;;;;;5094188;28;20721;-77
2022/03/28 10:39:16;;;;;;;18.27;15.15;;;22.20;16.70;;;;;;5094458;28;20196;-80
2022/03/28 10:41:43;;;;;;;16.38;14.02;;;23.30;16.10;;;;;;5094437;28;20228;-80
2022/03/28 10:44:09;;;;;;;22.38;14.43;;;22.70;14.70;;;;;;5094560;28;20200;-79
2022/03/28 10:46:36;;;;;;;19.83;13.98;;;21.50;15.00;;;;;;5094403;28;20193;-83
2022/03/28 10:49:06;;;;;;;16.52;14.23;;;21.70;15.70;;;;;;5094656;28;20250;-75
2022/03/28 10:51:32;;;;;;;20.20;14.50;;;22.50;15.50;;;;;;5094349;28;20205;-79
2022/03/28 10:54:03;;;;;;;16.85;14.13;;;23.40;14.80;;;;;;5094429;28;20196;-79
2022/03/28 10:56:32;;;;;;;20.27;14.57;;;24.10;13.90;;;;;;5094221;28;20201;-79
2022/03/28 10:59:01;;;;;;;18.08;14.88;;;25.00;13.30;;;;;;5094047;28;20197;-79
2022/03/28 11:01:32;;;;;;;15.82;13.52;;;25.10;12.40;;;;;;5094408;28;20220;-81
2022/03/28 11:04:07;;;;;;;17.27;14.30;;;23.50;12.20;;;;;;5094464;28;20201;-82
2022/03/28 11:06:59;;;;;;;21.33;14.85;;;24.70;12.20;;;;;;5094204;28;20248;-82
2022/03/28 11:09:50;;;;;;;17.20;14.35;;;24.20;11.40;;;;;;5093874;28;20201;-80
2022/03/28 11:12:19;;;;;;;17.88;13.55;;;25.60;10.80;;;;;;5094386;28;20219;-83
2022/03/28 11:14:55;;;;;;;17.02;14.82;;;26.20;9.50;;;;;;5096117;28;20200;-89
2022/03/28 11:17:25;;;;;;;18.80;14.13;;;25.00;9.60;;;;;;5094560;28;20555;-80
2022/03/28 11:19:53;;;;;;;15.73;14.02;;;24.80;10.70;;;;;;5093795;28;20245;-77
2022/03/28 11:22:37;;;;;;;17.65;15.77;;;25.80;10.10;;;;;;5093553;28;20757;-76
2022/03/28 11:25:26;;;;;;;18.30;14.90;;;26.20;9.70;;;;;;5093554;28;20673;-75
2022/03/28 11:28:03;;;;;;;21.20;15.90;;;24.80;10.40;;;;;;5093393;28;20200;-76
2022/03/28 11:30:29;;;;;;;20.35;15.00;;;24.40;10.10;;;;;;5094203;28;20642;-74
2022/03/28 11:32:58;;;;;;;17.02;14.60;;;25.20;10.80;;;;;;5094360;28;20643;-77
2022/03/28 11:35:24;;;;;;;20.52;14.77;;;25.30;10.70;;;;;;5093840;28;20202;-82
2022/03/28 11:37:54;;;;;;;19.50;16.25;;;25.00;9.60;;;;;;5094291;28;20257;-80
2022/03/28 11:40:22;;;;;;;19.40;15.90;;;24.50;10.00;;;;;;5094635;28;20253;-81
2022/03/28 11:42:50;;;;;;;18.27;15.10;;;23.70;10.90;;;;;;5094200;28;20690;-82
2022/03/28 11:45:18;;;;;;;17.40;13.73;;;24.00;10.40;;;;;;5094332;28;20287;-81
2022/03/28 11:47:51;;;;;;;18.80;12.68;;;24.30;9.40;;;;;;5093944;28;20196;-81
2022/03/28 11:50:18;;;;;;;20.95;13.43;;;24.00;8.70;;;;;;5093621;28;20219;-80
2022/03/28 11:52:49;;;;;;;22.48;13.68;;;23.20;7.90;;;;;;5093391;28;20525;-80
2022/03/28 11:55:21;;;;;;;24.33;13.95;;;23.10;8.40;;;;;;5093889;28;20238;-81
2022/03/28 12:00:36;;;;;;;15.98;13.60;;;22.70;9.50;;;;;;5093340;28;20319;-77
2022/03/28 12:03:03;;;;;;;18.80;13.65;;;23.50;9.30;;;;;;5092838;28;20227;-76
2022/03/28 12:05:31;;;;;;;18.73;13.75;;;24.60;9.20;;;;;;5093056;28;20232;-76
2022/03/28 12:08:01;;;;;;;16.38;14.02;;;25.00;9.00;;;;;;5093127;28;20269;-74
2022/03/28 12:10:29;;;;;;;17.20;13.70;;;25.40;8.90;;;;;;5093141;28;20200;-75
2022/03/28 12:12:59;;;;;;;17.77;15.27;;;24.60;9.20;;;;;;5092907;28;20200;-75
2022/03/28 12:15:31;;;;;;;17.92;14.38;;;24.00;9.20;;;;;;5093526;28;20225;-75
2022/03/28 12:17:59;;;;;;;18.92;13.82;;;24.30;9.70;;;;;;5093091;28;20196;-74
2022/03/28 12:20:29;;;;;;;18.15;14.20;;;25.00;9.10;;;;;;5092907;28;20202;-75
2022/03/28 12:22:56;;;;;;;24.73;14.38;;;24.10;8.90;;;;;;5096808;28;20244;-75
2022/03/28 12:25:28;;;;;;;19.13;14.23;;;23.50;8.50;;;;;;5097264;28;20289;-77
2022/03/28 12:27:56;;;;;;;18.40;13.75;;;24.00;8.80;;;;;;5097294;28;20203;-76
2022/03/28 12:30:31;;;;;;;20.42;13.40;;;24.40;8.50;;;;;;5097211;28;20200;-76
2022/03/28 12:33:03;;;;;;;16.58;13.38;;;24.50;8.50;;;;;;5097402;28;20211;-76
2022/03/28 12:35:29;;;;;;;19.00;14.38;;;24.40;8.60;;;;;;5097561;28;20192;-76
2022/03/28 12:38:01;;;;;;;20.60;14.57;;;24.70;8.30;;;;;;5097363;28;20204;-76
2022/03/28 12:40:29;;;;;;;17.15;14.48;;;26.40;8.40;;;;;;5097744;28;20203;-76